Terminal Aerodrome Forecast
Issued by NWS Pueblo, CO

Home | Current Version | Previous Version | Text Only | Print | Product List | Glossary On
Versions: 1 2 3 4 5 6 7 8 9 10 11 12 13 14 15 16 17 18 19
000
FTUS45 KPUB 281704 AAC
TAFPUB
TAF AMD
KPUB 281704Z 2817/2912 35006KT P6SM VCSH BKN015
      TEMPO 2820/2824 6SM -SHRA BKN020
     FM290000 04014KT 3SM -SHRA BR SCT010 OVC020
     FM290400 03018G28KT 3SM -SHRA BR OVC015
     FM290900 01020G35KT 6SM -SHRA SCT015 OVC035=

USA.gov is the U.S. government's official web portal to all federal, state and local government web resources and services.